createdAt,value
2019-03-29T00:00:49.334Z,16.33
2019-03-29T00:02:24.890Z,15.83
2019-03-29T00:04:00.852Z,15.83
2019-03-29T00:05:36.138Z,14.93
2019-03-29T00:07:11.333Z,13.67
2019-03-29T00:08:46.578Z,14.53
2019-03-29T00:10:21.751Z,16.50
2019-03-29T00:11:57.032Z,15.77
2019-03-29T00:13:32.248Z,15.87
2019-03-29T00:15:08.084Z,18.30
2019-03-29T00:16:43.576Z,18.53
2019-03-29T00:18:18.754Z,15.27
2019-03-29T00:19:54.913Z,18.00
2019-03-29T00:21:30.151Z,19.10
2019-03-29T00:23:05.424Z,20.03
2019-03-29T00:24:41.107Z,19.47
2019-03-29T00:26:16.420Z,17.73
2019-03-29T00:27:51.605Z,18.73
2019-03-29T00:29:26.806Z,17.07
2019-03-29T00:31:02.023Z,16.67
2019-03-29T00:32:37.192Z,21.87
2019-03-29T00:34:12.363Z,18.27
2019-03-29T00:35:48.539Z,17.87
2019-03-29T00:37:23.742Z,17.43
2019-03-29T00:38:58.946Z,18.27
2019-03-29T00:40:34.208Z,18.73
2019-03-29T00:42:09.408Z,20.77
2019-03-29T00:43:44.584Z,18.77
2019-03-29T00:45:19.781Z,20.53
2019-03-29T00:46:55.002Z,18.23
2019-03-29T00:48:30.189Z,20.60
2019-03-29T00:50:06.333Z,23.07
2019-03-29T00:51:42.185Z,21.17
2019-03-29T00:53:17.366Z,22.90
2019-03-29T00:54:52.566Z,21.40
2019-03-29T00:56:27.770Z,19.73
2019-03-29T00:58:03.353Z,22.37
2019-03-29T00:59:38.590Z,22.27
2019-03-29T01:01:13.821Z,22.23
2019-03-29T01:02:49.191Z,19.73
2019-03-29T01:04:24.376Z,22.07
2019-03-29T01:05:59.583Z,21.97
2019-03-29T01:07:34.762Z,21.97
2019-03-29T01:09:09.961Z,22.23
2019-03-29T01:10:45.123Z,22.70
2019-03-29T01:12:20.309Z,23.57
2019-03-29T01:13:55.494Z,23.13
2019-03-29T01:15:30.670Z,20.90
2019-03-29T01:17:05.927Z,21.30
2019-03-29T01:18:41.096Z,23.67
2019-03-29T01:20:16.348Z,22.57
2019-03-29T01:21:51.536Z,21.90
2019-03-29T01:23:26.699Z,19.67
2019-03-29T01:25:01.900Z,23.60
2019-03-29T01:26:37.118Z,21.37
2019-03-29T01:28:12.365Z,19.87
2019-03-29T01:29:47.663Z,22.23
2019-03-29T01:31:22.891Z,24.53
2019-03-29T01:32:58.926Z,23.27
2019-03-29T01:34:34.242Z,22.00
2019-03-29T01:36:09.511Z,24.57
2019-03-29T01:37:45.987Z,25.20
2019-03-29T01:39:21.271Z,21.43
2019-03-29T01:41:00.985Z,23.30
2019-03-29T01:42:36.358Z,25.67
2019-03-29T01:44:11.555Z,21.37
2019-03-29T01:45:46.785Z,22.10
2019-03-29T01:47:21.978Z,23.57
2019-03-29T01:48:57.175Z,24.87
2019-03-29T01:50:32.349Z,23.93
2019-03-29T01:52:07.613Z,25.07
2019-03-29T01:53:42.831Z,20.37
2019-03-29T01:55:18.004Z,25.33
2019-03-29T01:56:54.152Z,23.07
2019-03-29T01:58:29.343Z,22.97
2019-03-29T02:00:05.228Z,22.30
2019-03-29T02:01:40.491Z,22.37
2019-03-29T02:03:15.680Z,22.43
2019-03-29T02:04:50.864Z,24.23
2019-03-29T02:06:26.037Z,22.63
2019-03-29T02:08:01.226Z,23.57
2019-03-29T02:09:36.521Z,24.60
2019-03-29T02:11:11.747Z,24.87
2019-03-29T02:12:46.953Z,24.80
2019-03-29T02:14:22.401Z,22.90
2019-03-29T02:15:57.581Z,26.67
2019-03-29T02:17:32.763Z,23.80
2019-03-29T02:19:09.018Z,22.30
2019-03-29T02:20:44.495Z,21.13
2019-03-29T02:22:19.686Z,25.23
2019-03-29T02:23:54.867Z,26.17
2019-03-29T02:25:30.049Z,24.43
2019-03-29T02:27:05.425Z,24.53
2019-03-29T02:28:40.601Z,21.40
2019-03-29T02:30:16.188Z,23.87
2019-03-29T02:31:51.366Z,25.37
2019-03-29T02:33:26.574Z,27.90
2019-03-29T02:35:01.782Z,23.17
2019-03-29T02:36:36.971Z,23.00
2019-03-29T02:38:12.152Z,25.07
2019-03-29T02:39:47.348Z,27.40
2019-03-29T02:41:22.633Z,24.97
2019-03-29T02:42:58.222Z,25.30
2019-03-29T02:44:34.810Z,25.30
2019-03-29T02:46:10.120Z,25.37
2019-03-29T02:47:45.330Z,25.30
2019-03-29T02:49:20.511Z,25.90
2019-03-29T02:50:55.713Z,26.57
2019-03-29T02:52:30.977Z,24.80
2019-03-29T02:54:06.164Z,25.23
2019-03-29T02:55:41.370Z,23.43
2019-03-29T02:57:16.545Z,27.27
2019-03-29T02:58:51.748Z,24.67
2019-03-29T03:00:26.952Z,25.87
2019-03-29T03:02:02.315Z,26.23
2019-03-29T03:03:37.521Z,25.07
2019-03-29T03:05:13.017Z,24.60
2019-03-29T03:06:48.204Z,25.30
2019-03-29T03:08:23.455Z,27.13
2019-03-29T03:09:58.731Z,24.43
2019-03-29T03:11:33.965Z,23.27
2019-03-29T03:13:09.141Z,24.40
2019-03-29T03:14:44.325Z,21.53
2019-03-29T03:16:19.505Z,26.93
2019-03-29T03:17:54.724Z,23.97
2019-03-29T03:19:29.936Z,26.57
2019-03-29T03:21:05.208Z,24.17
2019-03-29T03:22:41.460Z,24.87
2019-03-29T03:24:16.645Z,26.23
2019-03-29T03:25:51.863Z,26.80
2019-03-29T03:27:27.026Z,26.50
2019-03-29T03:29:03.276Z,30.57
2019-03-29T03:30:38.594Z,24.10
2019-03-29T03:32:13.746Z,28.23
2019-03-29T03:33:48.925Z,27.30
2019-03-29T03:35:24.108Z,22.87
2019-03-29T03:36:59.283Z,27.23
2019-03-29T03:38:35.438Z,25.90
2019-03-29T03:40:11.111Z,25.50
2019-03-29T03:41:46.513Z,30.23
2019-03-29T03:43:21.675Z,24.07
2019-03-29T03:44:56.887Z,25.73
2019-03-29T03:46:32.061Z,25.57
2019-03-29T03:48:07.222Z,25.00
2019-03-29T03:49:42.530Z,24.83
2019-03-29T03:51:17.814Z,24.07
2019-03-29T03:52:52.990Z,23.30
2019-03-29T03:54:28.180Z,23.03
2019-03-29T03:56:04.696Z,22.10
2019-03-29T03:57:39.863Z,23.57
2019-03-29T03:59:15.329Z,28.20
2019-03-29T04:00:54.426Z,24.90
2019-03-29T04:02:29.639Z,28.50
2019-03-29T04:04:04.844Z,24.70
2019-03-29T04:05:40.026Z,23.77
2019-03-29T04:07:15.250Z,24.37
2019-03-29T04:08:50.513Z,26.80
2019-03-29T04:10:25.681Z,23.90
2019-03-29T04:12:00.856Z,26.97
2019-03-29T04:13:36.059Z,23.97
2019-03-29T04:15:11.399Z,24.43
2019-03-29T04:16:46.577Z,27.27
2019-03-29T04:18:21.856Z,21.67
2019-03-29T04:19:57.049Z,29.43
2019-03-29T04:21:32.221Z,25.40
2019-03-29T04:23:07.398Z,24.10
2019-03-29T04:24:42.607Z,26.57
2019-03-29T04:26:17.824Z,25.13
2019-03-29T04:27:53.113Z,24.20
2019-03-29T04:29:28.290Z,24.43
2019-03-29T04:31:03.667Z,23.87
2019-03-29T04:32:38.837Z,24.00
2019-03-29T04:34:14.269Z,22.67
2019-03-29T04:35:49.450Z,24.07
2019-03-29T04:37:24.609Z,22.50
2019-03-29T04:38:59.868Z,25.33
2019-03-29T04:40:35.161Z,25.00
2019-03-29T04:42:10.522Z,21.60
2019-03-29T04:43:45.797Z,22.27
2019-03-29T04:45:20.965Z,24.70
2019-03-29T04:46:56.318Z,23.97
2019-03-29T04:48:31.487Z,29.27
2019-03-29T04:50:06.799Z,21.83
2019-03-29T04:51:42.079Z,24.87
2019-03-29T04:53:17.262Z,27.57
2019-03-29T04:54:52.441Z,24.53
2019-03-29T04:56:27.632Z,23.40
2019-03-29T04:58:03.819Z,29.67
2019-03-29T04:59:39.005Z,23.13
2019-03-29T05:01:17.266Z,24.80
2019-03-29T05:02:51.167Z,24.70
2019-03-29T05:04:26.339Z,24.47
2019-03-29T05:06:01.520Z,24.70
2019-03-29T05:07:37.149Z,24.93
2019-03-29T05:09:12.528Z,25.33
2019-03-29T05:10:47.719Z,20.90
2019-03-29T05:12:22.890Z,27.07
2019-03-29T05:13:58.071Z,22.20
2019-03-29T05:15:33.252Z,24.83
2019-03-29T05:17:09.679Z,22.83
2019-03-29T05:18:44.845Z,27.40
2019-03-29T05:20:20.039Z,24.57
2019-03-29T05:21:55.234Z,23.60
2019-03-29T05:23:31.361Z,25.00
2019-03-29T05:25:06.669Z,23.63
2019-03-29T05:26:41.869Z,23.83
2019-03-29T05:28:17.033Z,20.67
2019-03-29T05:29:52.212Z,23.10
2019-03-29T05:31:27.391Z,23.17
2019-03-29T05:33:03.830Z,20.80
2019-03-29T05:34:39.000Z,24.13
2019-03-29T05:36:14.191Z,24.97
2019-03-29T05:37:49.383Z,21.30
2019-03-29T05:39:24.555Z,22.30
2019-03-29T05:40:59.725Z,22.33
2019-03-29T05:42:34.973Z,22.67
2019-03-29T05:44:10.253Z,21.10
2019-03-29T05:45:45.481Z,23.27
2019-03-29T05:47:20.720Z,23.13
2019-03-29T05:48:55.979Z,23.43
2019-03-29T05:50:31.180Z,22.07
2019-03-29T05:52:06.381Z,21.87
2019-03-29T05:53:41.562Z,20.17
2019-03-29T05:55:18.715Z,24.53
2019-03-29T05:56:53.898Z,21.33
2019-03-29T05:58:29.061Z,23.73
2019-03-29T06:00:04.738Z,25.57
2019-03-29T06:01:39.911Z,18.70
2019-03-29T06:03:15.079Z,20.37
2019-03-29T06:04:50.346Z,17.23
2019-03-29T06:06:25.912Z,18.97
2019-03-29T06:08:01.067Z,19.93
2019-03-29T06:09:36.266Z,24.40
2019-03-29T06:11:11.561Z,20.53
2019-03-29T06:12:46.757Z,18.07
2019-03-29T06:14:21.940Z,18.90
2019-03-29T06:15:57.129Z,17.70
2019-03-29T06:17:32.333Z,17.53
2019-03-29T06:19:07.522Z,18.70
2019-03-29T06:20:42.706Z,19.57
2019-03-29T06:22:19.763Z,18.23
2019-03-29T06:23:54.972Z,16.47
2019-03-29T06:25:30.143Z,15.30
2019-03-29T06:27:06.488Z,15.53
2019-03-29T06:28:41.668Z,18.10
2019-03-29T06:30:21.510Z,18.80
2019-03-29T06:31:56.801Z,15.00
2019-03-29T06:33:31.981Z,13.57
2019-03-29T06:35:07.662Z,14.70
2019-03-29T06:36:43.454Z,15.17
2019-03-29T06:38:19.230Z,13.53
2019-03-29T06:39:55.099Z,15.80
2019-03-29T06:41:30.281Z,13.70
2019-03-29T06:43:05.974Z,13.03
2019-03-29T06:44:44.187Z,15.73
2019-03-29T06:46:18.072Z,12.20
2019-03-29T06:47:53.238Z,14.80
2019-03-29T06:49:28.433Z,14.23
2019-03-29T06:51:03.619Z,14.70
2019-03-29T06:52:38.811Z,12.80
2019-03-29T06:54:14.004Z,14.83
2019-03-29T06:55:49.227Z,13.77
2019-03-29T06:57:24.417Z,14.20
2019-03-29T06:58:59.980Z,12.53
2019-03-29T07:00:35.188Z,15.70
2019-03-29T07:02:10.398Z,14.73
2019-03-29T07:03:45.581Z,13.00
2019-03-29T07:05:20.764Z,11.50
2019-03-29T07:06:55.947Z,12.50
2019-03-29T07:08:31.211Z,12.83
2019-03-29T07:10:06.809Z,13.30
2019-03-29T07:11:41.997Z,13.00
2019-03-29T07:13:17.183Z,11.83
2019-03-29T07:14:52.358Z,13.57
2019-03-29T07:16:27.539Z,12.17
2019-03-29T07:18:02.833Z,13.17
2019-03-29T07:19:38.026Z,12.30
2019-03-29T07:21:21.426Z,12.50
2019-03-29T07:22:50.130Z,11.33
2019-03-29T07:24:25.367Z,13.13
